createdAt,value
2023-05-06T00:00:50.014Z,15.33
2023-05-06T00:01:49.991Z,15.33
2023-05-06T00:02:50.067Z,15.30
2023-05-06T00:03:50.060Z,15.22
2023-05-06T00:04:50.084Z,15.23
2023-05-06T00:05:50.103Z,15.20
2023-05-06T00:06:49.927Z,15.19
2023-05-06T00:07:49.942Z,15.15
2023-05-06T00:08:49.921Z,15.15
2023-05-06T00:09:50.065Z,15.14
2023-05-06T00:10:49.929Z,15.10
2023-05-06T00:11:49.937Z,15.10
2023-05-06T00:12:49.884Z,15.12
2023-05-06T00:13:49.871Z,15.11
2023-05-06T00:14:49.866Z,15.15
2023-05-06T00:15:49.822Z,15.14
2023-05-06T00:16:49.854Z,15.14
2023-05-06T00:17:49.874Z,15.12
2023-05-06T00:18:49.877Z,15.17
2023-05-06T00:19:49.840Z,15.14
2023-05-06T00:20:49.777Z,15.12
2023-05-06T00:21:49.860Z,15.15
2023-05-06T00:22:49.780Z,15.19
2023-05-06T00:23:49.765Z,15.19
2023-05-06T00:24:49.800Z,15.22
2023-05-06T00:25:49.734Z,15.20
2023-05-06T00:26:49.744Z,15.17
2023-05-06T00:27:49.715Z,15.17
2023-05-06T00:28:49.744Z,15.12
2023-05-06T00:29:50.260Z,15.17
2023-05-06T00:30:49.696Z,15.12
2023-05-06T00:31:49.701Z,15.07
2023-05-06T00:32:49.750Z,15.12
2023-05-06T00:33:49.714Z,15.10
2023-05-06T00:34:49.664Z,15.08
2023-05-06T00:35:49.645Z,15.08
2023-05-06T00:36:49.632Z,15.04
2023-05-06T00:37:49.615Z,15.04
2023-05-06T00:38:49.605Z,14.97
2023-05-06T00:39:49.617Z,15.04
2023-05-06T00:40:49.626Z,15.05
2023-05-06T00:41:49.590Z,15.05
2023-05-06T00:42:49.581Z,15.01
2023-05-06T00:43:49.571Z,15.05
2023-05-06T00:44:49.575Z,15.05
2023-05-06T00:45:49.554Z,15.07
2023-05-06T00:46:49.558Z,15.07
2023-05-06T00:47:49.603Z,15.10
2023-05-06T00:48:49.500Z,15.10
2023-05-06T00:49:49.495Z,15.08
2023-05-06T00:50:49.487Z,15.11
2023-05-06T00:51:49.478Z,15.12
2023-05-06T00:52:49.482Z,15.12
2023-05-06T00:53:49.486Z,15.15
2023-05-06T00:54:49.442Z,15.12
2023-05-06T00:55:49.511Z,15.14
2023-05-06T00:56:49.475Z,15.14
2023-05-06T00:57:49.440Z,15.14
2023-05-06T00:58:49.406Z,15.17
2023-05-06T00:59:49.420Z,15.19
2023-05-06T01:00:49.454Z,15.17
2023-05-06T01:01:49.449Z,15.19
2023-05-06T01:02:50.178Z,15.25
2023-05-06T01:03:49.510Z,15.23
2023-05-06T01:04:49.370Z,15.27
2023-05-06T01:05:49.418Z,15.25
2023-05-06T01:06:49.725Z,15.26
2023-05-06T01:07:49.333Z,15.25
2023-05-06T01:08:50.082Z,15.29
2023-05-06T01:09:49.306Z,15.30
2023-05-06T01:10:49.296Z,15.29
2023-05-06T01:11:49.303Z,15.26
2023-05-06T01:12:49.420Z,15.20
2023-05-06T01:13:49.307Z,15.10
2023-05-06T01:14:49.264Z,15.05
2023-05-06T01:15:49.237Z,15.01
2023-05-06T01:16:49.371Z,14.95
2023-05-06T01:17:49.283Z,14.89
2023-05-06T01:18:49.221Z,14.85
2023-05-06T01:19:49.215Z,14.82
2023-05-06T01:20:49.172Z,14.79
2023-05-06T01:21:49.217Z,14.78
2023-05-06T01:22:49.186Z,14.71
2023-05-06T01:23:49.169Z,14.67
2023-05-06T01:24:49.198Z,14.66
2023-05-06T01:25:49.153Z,14.64
2023-05-06T01:26:49.166Z,14.64
2023-05-06T01:27:49.152Z,14.59
2023-05-06T01:28:49.167Z,14.56
2023-05-06T01:29:49.084Z,14.53
2023-05-06T01:30:49.157Z,14.55
2023-05-06T01:31:49.132Z,14.52
2023-05-06T01:32:49.117Z,14.55
2023-05-06T01:33:49.064Z,14.49
2023-05-06T01:34:49.095Z,14.44
2023-05-06T01:35:49.333Z,14.40
2023-05-06T01:36:49.111Z,14.40
2023-05-06T01:37:49.017Z,14.36
2023-05-06T01:38:48.997Z,14.34
2023-05-06T01:39:49.108Z,14.36
2023-05-06T01:40:48.977Z,14.37
2023-05-06T01:41:49.032Z,14.44
2023-05-06T01:42:48.956Z,14.44
2023-05-06T01:43:48.947Z,14.46
2023-05-06T01:44:48.957Z,14.40
2023-05-06T01:45:48.927Z,14.37
2023-05-06T01:46:48.969Z,14.37
2023-05-06T01:47:48.981Z,14.34
2023-05-06T01:48:48.953Z,14.33
2023-05-06T01:49:48.879Z,14.28
2023-05-06T01:50:48.981Z,14.22
2023-05-06T01:51:48.947Z,14.21
2023-05-06T01:52:48.848Z,14.21
2023-05-06T01:53:48.858Z,14.22
2023-05-06T01:54:48.879Z,14.28
2023-05-06T01:55:48.876Z,14.31
2023-05-06T01:56:48.828Z,14.23
2023-05-06T01:57:48.821Z,14.18
2023-05-06T01:58:48.787Z,14.13
2023-05-06T01:59:48.798Z,14.13
2023-05-06T02:00:48.807Z,14.08
2023-05-06T02:01:48.896Z,14.00
2023-05-06T02:02:48.878Z,14.01
2023-05-06T02:03:48.902Z,14.01
2023-05-06T02:04:48.741Z,13.98
2023-05-06T02:05:48.760Z,13.97
2023-05-06T02:06:48.740Z,13.94
2023-05-06T02:07:48.728Z,13.91
2023-05-06T02:08:48.717Z,13.91
2023-05-06T02:09:48.712Z,13.93
2023-05-06T02:10:48.726Z,13.96
2023-05-06T02:11:48.683Z,13.96
2023-05-06T02:12:48.686Z,13.97
2023-05-06T02:13:48.705Z,14.01
2023-05-06T02:14:48.654Z,14.00
2023-05-06T02:15:48.707Z,14.04
2023-05-06T02:16:48.668Z,14.09
2023-05-06T02:17:48.628Z,14.08
2023-05-06T02:18:48.658Z,14.01
2023-05-06T02:19:48.601Z,13.94
2023-05-06T02:20:48.605Z,13.94
2023-05-06T02:21:48.585Z,13.94
2023-05-06T02:22:48.596Z,13.97
2023-05-06T02:23:48.549Z,13.97
2023-05-06T02:24:48.549Z,13.98
2023-05-06T02:25:48.521Z,14.00
2023-05-06T02:26:48.500Z,13.98
2023-05-06T02:27:48.528Z,13.94
2023-05-06T02:28:48.541Z,13.91
2023-05-06T02:29:48.507Z,13.88
2023-05-06T02:30:48.491Z,13.85
2023-05-06T02:31:48.485Z,13.86
2023-05-06T02:32:48.491Z,13.83
2023-05-06T02:33:48.476Z,13.83
2023-05-06T02:34:48.479Z,13.80
2023-05-06T02:35:48.423Z,13.76
2023-05-06T02:36:48.560Z,13.80
2023-05-06T02:37:48.397Z,13.72
2023-05-06T02:38:48.428Z,13.72
2023-05-06T02:39:48.398Z,13.75
2023-05-06T02:40:48.368Z,13.73
2023-05-06T02:41:48.408Z,13.71
2023-05-06T02:42:48.415Z,13.68
2023-05-06T02:43:48.372Z,13.68
2023-05-06T02:44:48.342Z,13.67
2023-05-06T02:45:48.353Z,13.68
2023-05-06T02:46:48.317Z,13.68
2023-05-06T02:47:48.332Z,13.67
2023-05-06T02:48:48.316Z,13.68
2023-05-06T02:49:48.290Z,13.73
2023-05-06T02:50:48.321Z,13.71
2023-05-06T02:51:48.326Z,13.79
2023-05-06T02:52:48.294Z,13.78
2023-05-06T02:53:48.308Z,13.80
2023-05-06T02:54:48.265Z,13.82
2023-05-06T02:55:48.294Z,13.79
2023-05-06T02:56:48.213Z,13.80
2023-05-06T02:57:48.230Z,13.71
2023-05-06T02:58:48.190Z,13.68
2023-05-06T02:59:48.222Z,13.64
2023-05-06T03:00:48.314Z,13.60
2023-05-06T03:01:48.154Z,13.65
2023-05-06T03:02:48.139Z,13.65
2023-05-06T03:03:48.171Z,13.71
2023-05-06T03:04:48.138Z,13.73
2023-05-06T03:05:48.176Z,13.67
2023-05-06T03:06:48.112Z,13.68
2023-05-06T03:07:48.096Z,13.63
2023-05-06T03:08:48.115Z,13.58
2023-05-06T03:09:48.132Z,13.58
2023-05-06T03:10:48.055Z,13.63
2023-05-06T03:11:48.610Z,13.65
2023-05-06T03:12:48.116Z,13.67
2023-05-06T03:13:48.047Z,13.71
2023-05-06T03:14:48.030Z,13.67
2023-05-06T03:15:48.100Z,13.61
2023-05-06T03:16:48.018Z,13.61
2023-05-06T03:17:48.116Z,13.60
2023-05-06T03:18:48.004Z,13.54
2023-05-06T03:19:48.031Z,13.51
2023-05-06T03:20:47.990Z,13.57
2023-05-06T03:21:48.018Z,13.61
2023-05-06T03:22:47.916Z,13.60
2023-05-06T03:23:47.882Z,13.55
2023-05-06T03:24:47.913Z,13.51
2023-05-06T03:25:47.858Z,13.53
2023-05-06T03:26:47.859Z,13.53
2023-05-06T03:27:47.856Z,13.54
2023-05-06T03:28:47.851Z,13.54
2023-05-06T03:29:47.832Z,13.60
2023-05-06T03:30:47.835Z,13.64
2023-05-06T03:31:47.819Z,13.61
2023-05-06T03:32:47.901Z,13.63
2023-05-06T03:33:47.894Z,13.61
2023-05-06T03:34:47.788Z,13.55
2023-05-06T03:35:47.778Z,13.51
2023-05-06T03:36:47.738Z,13.46
2023-05-06T03:37:47.779Z,13.43
2023-05-06T03:38:47.745Z,13.29
2023-05-06T03:39:47.773Z,13.26
2023-05-06T03:40:47.733Z,13.27
2023-05-06T03:41:47.696Z,13.29
2023-05-06T03:42:47.783Z,13.27
2023-05-06T03:43:47.690Z,13.30
2023-05-06T03:44:47.689Z,13.30
2023-05-06T03:45:47.684Z,13.32
2023-05-06T03:46:47.673Z,13.35
2023-05-06T03:47:48.342Z,13.29
2023-05-06T03:48:47.642Z,13.17
2023-05-06T03:49:47.657Z,13.06
2023-05-06T03:50:47.607Z,13.02
2023-05-06T03:51:47.608Z,13.08
2023-05-06T03:52:47.603Z,13.05
2023-05-06T03:53:47.623Z,13.06
2023-05-06T03:54:47.553Z,12.95
2023-05-06T03:55:47.617Z,12.87
2023-05-06T03:56:47.554Z,12.88
2023-05-06T03:57:47.577Z,12.86
2023-05-06T03:58:47.577Z,12.87
2023-05-06T03:59:47.533Z,12.86
2023-05-06T04:00:47.515Z,12.87
2023-05-06T04:01:47.574Z,12.90
2023-05-06T04:02:47.598Z,12.91
2023-05-06T04:03:47.541Z,12.90
2023-05-06T04:04:47.465Z,12.90
2023-05-06T04:05:47.493Z,12.93
2023-05-06T04:06:47.441Z,12.98
2023-05-06T04:07:47.464Z,13.04
2023-05-06T04:08:47.506Z,13.04
2023-05-06T04:09:47.475Z,13.05
2023-05-06T04:10:47.404Z,13.05
2023-05-06T04:11:47.447Z,13.09
2023-05-06T04:12:47.433Z,13.05
2023-05-06T04:13:47.650Z,13.05
2023-05-06T04:14:47.439Z,13.06
2023-05-06T04:15:47.398Z,13.04
2023-05-06T04:16:47.375Z,13.01
2023-05-06T04:17:47.400Z,12.91
2023-05-06T04:18:47.307Z,12.87
2023-05-06T04:19:47.344Z,12.88
2023-05-06T04:20:47.329Z,12.93
2023-05-06T04:21:47.311Z,12.96
2023-05-06T04:22:47.270Z,12.95
2023-05-06T04:23:47.324Z,12.98
2023-05-06T04:24:47.251Z,13.05
2023-05-06T04:25:47.275Z,13.08
2023-05-06T04:26:47.269Z,13.06
2023-05-06T04:27:47.260Z,13.05
2023-05-06T04:28:47.247Z,13.02
2023-05-06T04:29:47.249Z,13.02
2023-05-06T04:30:47.189Z,12.99
2023-05-06T04:31:47.334Z,12.96
2023-05-06T04:32:47.199Z,12.98
2023-05-06T04:33:47.231Z,12.99
2023-05-06T04:34:47.173Z,12.96
2023-05-06T04:35:47.169Z,13.02
2023-05-06T04:36:47.175Z,13.05
2023-05-06T04:37:47.182Z,13.16
2023-05-06T04:38:47.126Z,13.23
2023-05-06T04:39:47.179Z,13.21
2023-05-06T04:40:47.166Z,13.27
2023-05-06T04:41:47.107Z,13.29
2023-05-06T04:42:47.106Z,13.32
2023-05-06T04:43:47.124Z,13.38
2023-05-06T04:44:47.087Z,13.42
2023-05-06T04:45:47.085Z,13.45
2023-05-06T04:46:47.104Z,13.49
2023-05-06T04:47:47.062Z,13.47
2023-05-06T04:48:47.053Z,13.46
2023-05-06T04:49:47.203Z,13.45
2023-05-06T04:50:47.035Z,13.36
2023-05-06T04:51:47.077Z,13.32
2023-05-06T04:52:47.663Z,13.36
2023-05-06T04:53:46.993Z,13.38
2023-05-06T04:54:46.983Z,13.46
2023-05-06T04:55:46.981Z,13.46
2023-05-06T04:56:46.954Z,13.54
2023-05-06T04:57:47.154Z,13.55
2023-05-06T04:58:46.922Z,13.71
2023-05-06T04:59:46.924Z,13.78
2023-05-06T05:00:46.922Z,13.82
2023-05-06T05:01:47.016Z,13.79
2023-05-06T05:02:47.130Z,13.80
2023-05-06T05:03:46.958Z,13.79
2023-05-06T05:04:46.912Z,13.83
2023-05-06T05:05:46.950Z,13.80
2023-05-06T05:06:46.839Z,13.79
2023-05-06T05:07:46.849Z,13.78
2023-05-06T05:08:46.832Z,13.75
2023-05-06T05:09:46.834Z,13.64
2023-05-06T05:10:46.797Z,13.64
2023-05-06T05:11:46.817Z,13.64
2023-05-06T05:12:46.940Z,13.71
2023-05-06T05:13:46.771Z,13.64
2023-05-06T05:14:46.770Z,13.65
2023-05-06T05:15:46.803Z,13.67
2023-05-06T05:16:46.799Z,13.71
2023-05-06T05:17:46.782Z,13.76
2023-05-06T05:18:46.720Z,13.86
2023-05-06T05:19:46.755Z,13.88
2023-05-06T05:20:46.775Z,13.88
2023-05-06T05:21:46.693Z,13.91
2023-05-06T05:22:46.673Z,13.83
2023-05-06T05:23:46.707Z,13.76
2023-05-06T05:24:46.699Z,13.79
2023-05-06T05:25:46.696Z,13.83
2023-05-06T05:26:46.670Z,13.88
2023-05-06T05:27:46.701Z,13.96
2023-05-06T05:28:46.604Z,14.00
2023-05-06T05:29:46.632Z,14.05
2023-05-06T05:30:46.673Z,14.09
2023-05-06T05:31:46.702Z,14.16
2023-05-06T05:32:46.646Z,14.18
2023-05-06T05:33:46.584Z,14.13
2023-05-06T05:34:46.581Z,14.13
2023-05-06T05:35:46.549Z,14.13
2023-05-06T05:36:46.536Z,14.22
2023-05-06T05:37:46.593Z,14.31
2023-05-06T05:38:46.524Z,14.53
2023-05-06T05:39:46.538Z,14.83
2023-05-06T05:40:46.527Z,15.19
2023-05-06T05:41:46.502Z,15.56
2023-05-06T05:42:46.488Z,15.85
2023-05-06T05:43:46.511Z,16.06
2023-05-06T05:44:46.464Z,16.26
2023-05-06T05:45:46.748Z,16.39
2023-05-06T05:46:46.638Z,16.42
2023-05-06T05:47:46.503Z,16.58
2023-05-06T05:48:46.436Z,16.77
2023-05-06T05:49:46.432Z,16.54
2023-05-06T05:50:46.414Z,16.28
2023-05-06T05:51:46.388Z,16.13
2023-05-06T05:52:46.391Z,16.13
2023-05-06T05:53:46.417Z,16.24
2023-05-06T05:54:46.401Z,16.42
2023-05-06T05:55:46.404Z,16.67
2023-05-06T05:56:46.380Z,16.84
2023-05-06T05:57:46.398Z,16.95
2023-05-06T05:58:47.394Z,17.09
2023-05-06T05:59:46.319Z,17.19
2023-05-06T06:00:46.288Z,17.30
2023-05-06T06:01:46.321Z,17.41
2023-05-06T06:02:46.346Z,17.41
2023-05-06T06:03:46.513Z,17.38
2023-05-06T06:04:46.343Z,17.46
2023-05-06T06:05:46.275Z,17.62
2023-05-06T06:06:46.219Z,17.79
2023-05-06T06:07:46.218Z,17.93
2023-05-06T06:08:46.213Z,18.02
2023-05-06T06:09:46.212Z,18.26
2023-05-06T06:10:46.211Z,18.71
2023-05-06T06:11:46.268Z,19.19
2023-05-06T06:12:46.227Z,19.47
2023-05-06T06:13:46.188Z,19.57
2023-05-06T06:14:46.146Z,19.56
2023-05-06T06:15:46.145Z,19.53
2023-05-06T06:16:46.242Z,19.53
2023-05-06T06:17:46.149Z,19.47
2023-05-06T06:18:46.104Z,19.54
2023-05-06T06:19:46.131Z,19.54
2023-05-06T06:20:46.105Z,19.52
2023-05-06T06:21:46.077Z,19.42
2023-05-06T06:22:46.088Z,19.35
2023-05-06T06:23:46.278Z,19.31
2023-05-06T06:24:46.072Z,19.15
2023-05-06T06:25:46.061Z,19.16
2023-05-06T06:26:46.087Z,19.16
2023-05-06T06:27:46.021Z,19.20
2023-05-06T06:28:45.996Z,19.44
2023-05-06T06:29:46.109Z,19.54
2023-05-06T06:30:46.018Z,19.67
2023-05-06T06:31:46.049Z,19.68
2023-05-06T06:32:46.071Z,19.44
2023-05-06T06:33:46.011Z,19.30
2023-05-06T06:34:46.065Z,19.44
2023-05-06T06:35:45.956Z,19.78
2023-05-06T06:36:45.995Z,20.04
2023-05-06T06:37:45.976Z,20.08
2023-05-06T06:38:45.957Z,20.07
2023-05-06T06:39:45.983Z,19.94
2023-05-06T06:40:45.926Z,19.53
2023-05-06T06:41:45.957Z,19.44
2023-05-06T06:42:45.920Z,19.57
2023-05-06T06:43:45.881Z,19.52
2023-05-06T06:44:45.857Z,19.12
2023-05-06T06:45:45.933Z,18.75
2023-05-06T06:46:45.825Z,18.58
2023-05-06T06:47:45.899Z,18.49
2023-05-06T06:48:46.058Z,18.49
2023-05-06T06:49:45.801Z,18.54
2023-05-06T06:50:45.847Z,18.51
2023-05-06T06:51:45.803Z,18.51
2023-05-06T06:52:45.811Z,18.46
2023-05-06T06:53:45.782Z,18.42
2023-05-06T06:54:45.761Z,18.38
2023-05-06T06:55:45.783Z,18.26
2023-05-06T06:56:45.736Z,17.91
2023-05-06T06:57:45.812Z,17.52
2023-05-06T06:58:45.711Z,17.19
2023-05-06T06:59:45.799Z,16.97
2023-05-06T07:00:45.760Z,16.83
2023-05-06T07:01:45.775Z,16.77
2023-05-06T07:02:45.693Z,16.79
2023-05-06T07:03:45.680Z,16.83
2023-05-06T07:04:45.784Z,16.90
2023-05-06T07:05:45.650Z,16.97
2023-05-06T07:06:45.664Z,17.06
2023-05-06T07:07:45.627Z,17.12
2023-05-06T07:08:45.672Z,17.10
2023-05-06T07:09:45.592Z,17.07
2023-05-06T07:10:45.619Z,17.16
2023-05-06T07:11:45.599Z,17.27
2023-05-06T07:12:45.645Z,17.37
2023-05-06T07:13:45.628Z,17.43
2023-05-06T07:14:45.569Z,17.53
2023-05-06T07:15:45.607Z,17.57
2023-05-06T07:16:46.715Z,17.66
2023-05-06T07:17:45.559Z,17.76
2023-05-06T07:18:45.521Z,17.88
2023-05-06T07:19:45.620Z,17.99
2023-05-06T07:20:45.523Z,18.13
2023-05-06T07:21:45.490Z,18.23
2023-05-06T07:22:45.506Z,18.34
2023-05-06T07:23:45.442Z,18.42
2023-05-06T07:24:45.484Z,18.43
2023-05-06T07:25:45.838Z,18.56
2023-05-06T07:26:45.419Z,18.56
2023-05-06T07:27:45.681Z,18.61
2023-05-06T07:28:45.416Z,18.64
2023-05-06T07:29:45.385Z,18.66
2023-05-06T07:30:45.435Z,18.68
2023-05-06T07:31:45.409Z,18.70
2023-05-06T07:32:45.472Z,18.71
2023-05-06T07:33:45.385Z,18.71
2023-05-06T07:34:45.345Z,18.71
2023-05-06T07:35:45.343Z,18.75
2023-05-06T07:36:45.351Z,18.76
2023-05-06T07:37:45.425Z,18.78
2023-05-06T07:38:45.758Z,18.81
2023-05-06T07:39:45.357Z,18.81
2023-05-06T07:40:45.274Z,18.81
2023-05-06T07:41:45.297Z,18.85
2023-05-06T07:42:45.302Z,18.91
2023-05-06T07:43:45.297Z,18.96
2023-05-06T07:44:45.244Z,18.85
2023-05-06T07:45:45.231Z,18.75
2023-05-06T07:46:45.472Z,18.61
2023-05-06T07:47:45.344Z,18.54
2023-05-06T07:48:45.222Z,18.57
2023-05-06T07:49:45.260Z,18.64
2023-05-06T07:50:45.201Z,18.70
2023-05-06T07:51:45.261Z,18.79
2023-05-06T07:52:45.195Z,18.93
2023-05-06T07:53:45.204Z,19.05
2023-05-06T07:54:45.138Z,19.20
2023-05-06T07:55:45.154Z,19.30
2023-05-06T07:56:45.292Z,19.42
2023-05-06T07:57:45.142Z,19.50
2023-05-06T07:58:45.201Z,19.45
2023-05-06T07:59:45.095Z,19.49
2023-05-06T08:00:45.090Z,19.57
2023-05-06T08:01:45.081Z,19.62
2023-05-06T08:02:45.271Z,19.64
2023-05-06T08:03:45.234Z,19.70
2023-05-06T08:04:45.187Z,19.77
2023-05-06T08:05:45.060Z,19.84
2023-05-06T08:06:45.053Z,19.86
2023-05-06T08:07:45.132Z,19.87
2023-05-06T08:08:45.039Z,19.87
2023-05-06T08:09:45.023Z,19.90
2023-05-06T08:10:45.117Z,19.89
2023-05-06T08:11:45.010Z,19.89
2023-05-06T08:12:45.074Z,19.87
2023-05-06T08:13:45.289Z,19.90
2023-05-06T08:14:45.074Z,19.92
2023-05-06T08:15:44.985Z,19.94
2023-05-06T08:16:46.054Z,20.00
2023-05-06T08:17:44.936Z,19.86
2023-05-06T08:18:44.924Z,19.81
2023-05-06T08:19:44.899Z,19.77
2023-05-06T08:20:45.066Z,19.74
2023-05-06T08:21:44.884Z,19.77
2023-05-06T08:22:44.895Z,19.79
2023-05-06T08:23:44.884Z,19.86
2023-05-06T08:24:44.854Z,19.92
2023-05-06T08:25:44.858Z,19.90
2023-05-06T08:26:44.817Z,19.96
2023-05-06T08:27:44.827Z,19.96
2023-05-06T08:28:44.810Z,20.08
2023-05-06T08:29:44.799Z,20.11
2023-05-06T08:30:44.851Z,20.15
2023-05-06T08:31:45.478Z,20.25
2023-05-06T08:32:44.862Z,20.33
2023-05-06T08:33:44.751Z,20.48
2023-05-06T08:34:45.675Z,20.53
2023-05-06T08:35:44.720Z,20.53
2023-05-06T08:36:44.778Z,20.52
2023-05-06T08:37:44.746Z,20.44
2023-05-06T08:38:44.714Z,20.46
2023-05-06T08:39:44.699Z,20.50
2023-05-06T08:40:44.684Z,20.55
2023-05-06T08:41:44.740Z,20.67
2023-05-06T08:42:44.673Z,20.80
2023-05-06T08:43:44.650Z,20.86
2023-05-06T08:44:44.681Z,21.00
2023-05-06T08:45:44.712Z,21.10
2023-05-06T08:46:44.652Z,21.19
2023-05-06T08:47:44.656Z,21.26
2023-05-06T08:48:44.774Z,21.37
2023-05-06T08:49:44.597Z,21.43
2023-05-06T08:50:44.612Z,21.51
2023-05-06T08:51:44.601Z,21.59
2023-05-06T08:52:44.594Z,21.71
2023-05-06T08:53:44.589Z,21.75
2023-05-06T08:54:44.567Z,21.82
2023-05-06T08:55:44.658Z,21.69
2023-05-06T08:56:45.523Z,21.58
2023-05-06T08:57:44.519Z,21.38
2023-05-06T08:58:44.558Z,21.26
2023-05-06T08:59:44.549Z,21.11
2023-05-06T09:00:44.516Z,21.04
2023-05-06T09:01:44.508Z,20.90
2023-05-06T09:02:44.551Z,20.77
2023-05-06T09:03:44.572Z,20.65
2023-05-06T09:04:44.482Z,20.52
2023-05-06T09:05:44.468Z,20.39
2023-05-06T09:06:44.423Z,20.34
2023-05-06T09:07:44.408Z,20.30
2023-05-06T09:08:44.471Z,20.32
2023-05-06T09:09:44.443Z,20.33
2023-05-06T09:10:44.405Z,20.32
2023-05-06T09:11:44.366Z,20.30
2023-05-06T09:12:44.387Z,20.34
2023-05-06T09:13:44.369Z,20.41
2023-05-06T09:14:44.469Z,20.41
2023-05-06T09:15:44.526Z,20.34
2023-05-06T09:16:44.399Z,20.34
2023-05-06T09:17:44.391Z,20.37
2023-05-06T09:18:44.300Z,20.39
2023-05-06T09:19:44.309Z,20.41
2023-05-06T09:20:44.474Z,20.37
2023-05-06T09:21:44.303Z,20.33
2023-05-06T09:22:44.303Z,20.27
2023-05-06T09:23:44.295Z,20.23
2023-05-06T09:24:44.290Z,20.18
2023-05-06T09:25:44.303Z,20.07
2023-05-06T09:26:44.297Z,19.96
2023-05-06T09:27:44.232Z,19.87
2023-05-06T09:28:44.202Z,19.81
2023-05-06T09:29:44.248Z,19.77
2023-05-06T09:30:44.293Z,19.81
2023-05-06T09:31:44.223Z,19.89
2023-05-06T09:32:44.212Z,20.00
2023-05-06T09:33:44.159Z,20.18
2023-05-06T09:34:44.154Z,20.27
2023-05-06T09:35:44.161Z,20.36
2023-05-06T09:36:44.226Z,20.18
2023-05-06T09:37:44.111Z,19.93
2023-05-06T09:38:44.505Z,19.78
2023-05-06T09:39:44.096Z,19.68
2023-05-06T09:40:44.080Z,19.64
2023-05-06T09:41:44.105Z,19.70
2023-05-06T09:42:44.124Z,19.74
2023-05-06T09:43:44.046Z,19.81
2023-05-06T09:44:44.107Z,19.92
2023-05-06T09:45:44.121Z,20.05
2023-05-06T09:46:44.158Z,20.19
2023-05-06T09:47:44.089Z,20.33
2023-05-06T09:48:44.040Z,20.49
2023-05-06T09:49:44.004Z,20.46
2023-05-06T09:50:43.989Z,20.50
2023-05-06T09:51:44.009Z,20.48
2023-05-06T09:52:44.023Z,20.55
2023-05-06T09:53:43.994Z,20.58
2023-05-06T09:54:43.961Z,20.58
2023-05-06T09:55:44.028Z,20.56
2023-05-06T09:56:43.976Z,20.58
2023-05-06T09:57:43.965Z,20.56
2023-05-06T09:58:44.706Z,20.39
2023-05-06T09:59:43.923Z,20.22
2023-05-06T10:00:43.936Z,20.11
2023-05-06T10:01:43.918Z,19.99
2023-05-06T10:02:44.765Z,20.09
2023-05-06T10:03:43.967Z,20.22
2023-05-06T10:04:44.111Z,20.36
2023-05-06T10:05:43.894Z,20.53
2023-05-06T10:06:43.851Z,20.70
2023-05-06T10:07:43.875Z,20.88
2023-05-06T10:08:43.816Z,21.04
2023-05-06T10:09:43.816Z,21.19
2023-05-06T10:10:43.787Z,21.23
2023-05-06T10:11:43.813Z,21.28
2023-05-06T10:12:44.066Z,21.29
2023-05-06T10:13:43.848Z,21.08
2023-05-06T10:14:43.754Z,21.00
2023-05-06T10:15:43.770Z,20.85
2023-05-06T10:16:43.847Z,20.65
2023-05-06T10:17:43.773Z,20.68
2023-05-06T10:18:43.728Z,20.73
2023-05-06T10:19:43.761Z,20.80
2023-05-06T10:20:43.732Z,20.95
2023-05-06T10:21:43.685Z,21.03
2023-05-06T10:22:43.710Z,21.10
2023-05-06T10:23:43.670Z,21.11
2023-05-06T10:24:43.886Z,21.04
2023-05-06T10:25:43.675Z,20.98
2023-05-06T10:26:43.663Z,20.92
2023-05-06T10:27:43.620Z,20.86
2023-05-06T10:28:43.619Z,20.97
2023-05-06T10:29:43.704Z,21.13
2023-05-06T10:30:43.588Z,21.29
2023-05-06T10:31:43.661Z,21.44
2023-05-06T10:32:43.627Z,21.55
2023-05-06T10:33:43.718Z,21.62
2023-05-06T10:34:43.817Z,21.66
2023-05-06T10:35:43.528Z,21.74
2023-05-06T10:36:43.568Z,21.77
2023-05-06T10:37:43.545Z,21.80
2023-05-06T10:38:43.652Z,21.82
2023-05-06T10:39:43.643Z,21.82
2023-05-06T10:40:43.572Z,21.81
2023-05-06T10:41:43.586Z,21.75
2023-05-06T10:42:43.529Z,21.75
2023-05-06T10:43:43.549Z,21.71
2023-05-06T10:44:45.035Z,21.71
2023-05-06T10:45:43.469Z,21.75
2023-05-06T10:46:43.508Z,21.82
2023-05-06T10:47:43.452Z,21.85
2023-05-06T10:48:43.396Z,21.90
2023-05-06T10:49:43.435Z,21.93
2023-05-06T10:50:45.590Z,21.96
2023-05-06T10:51:43.370Z,22.04
2023-05-06T10:52:43.371Z,22.11
2023-05-06T10:53:43.433Z,22.15
2023-05-06T10:54:43.399Z,22.21
2023-05-06T10:55:43.385Z,22.25
2023-05-06T10:56:44.641Z,22.25
2023-05-06T10:57:43.335Z,22.30
2023-05-06T10:58:43.306Z,22.27
2023-05-06T10:59:43.334Z,22.28
2023-05-06T11:00:43.290Z,22.27
2023-05-06T11:01:43.282Z,22.25
2023-05-06T11:02:44.984Z,22.30
2023-05-06T11:03:43.301Z,22.40
2023-05-06T11:04:43.300Z,22.46
2023-05-06T11:05:43.235Z,22.55
2023-05-06T11:06:43.238Z,22.59
2023-05-06T11:07:43.214Z,22.59
2023-05-06T11:08:44.673Z,22.36
2023-05-06T11:09:43.210Z,22.01
2023-05-06T11:10:43.188Z,21.75
2023-05-06T11:11:43.159Z,21.67
2023-05-06T11:12:43.178Z,21.55
2023-05-06T11:13:43.188Z,21.53
2023-05-06T11:14:43.140Z,21.51
2023-05-06T11:15:43.237Z,21.62
2023-05-06T11:16:43.302Z,21.67
2023-05-06T11:17:43.145Z,21.73
2023-05-06T11:18:43.111Z,21.82
2023-05-06T11:19:43.162Z,21.93
2023-05-06T11:20:43.086Z,21.96
2023-05-06T11:21:43.094Z,21.94
2023-05-06T11:22:43.070Z,21.96
2023-05-06T11:23:43.150Z,21.85
2023-05-06T11:24:43.124Z,21.81
2023-05-06T11:25:43.212Z,21.80
2023-05-06T11:26:43.050Z,21.82
2023-05-06T11:27:43.002Z,21.93
2023-05-06T11:28:42.983Z,22.04
2023-05-06T11:29:43.077Z,22.12
2023-05-06T11:30:43.005Z,22.21
2023-05-06T11:31:43.001Z,22.23
2023-05-06T11:32:43.029Z,22.27
2023-05-06T11:33:42.946Z,22.30
2023-05-06T11:34:43.099Z,22.34
2023-05-06T11:35:42.946Z,22.41
2023-05-06T11:36:42.961Z,22.37
2023-05-06T11:37:43.088Z,22.28
2023-05-06T11:38:42.930Z,22.28
2023-05-06T11:39:42.927Z,22.28
2023-05-06T11:40:42.995Z,22.33
2023-05-06T11:41:42.869Z,22.38
2023-05-06T11:42:42.884Z,22.36
2023-05-06T11:43:42.850Z,22.23
2023-05-06T11:44:42.858Z,22.21
2023-05-06T11:45:42.880Z,22.23
2023-05-06T11:46:42.910Z,22.25
2023-05-06T11:47:43.160Z,22.28
2023-05-06T11:48:42.958Z,22.33
2023-05-06T11:49:42.832Z,22.37
2023-05-06T11:50:42.811Z,22.38
2023-05-06T11:51:42.778Z,22.40
2023-05-06T11:52:42.758Z,22.36
2023-05-06T11:53:42.800Z,22.34
2023-05-06T11:54:42.751Z,22.34
2023-05-06T11:55:42.771Z,22.37
2023-05-06T11:56:42.759Z,22.43
2023-05-06T11:57:42.722Z,22.46
2023-05-06T11:58:42.759Z,22.49
2023-05-06T11:59:42.694Z,22.58
2023-05-06T12:00:42.678Z,22.64
2023-05-06T12:01:42.794Z,22.70
2023-05-06T12:02:42.826Z,22.76
2023-05-06T12:03:42.790Z,22.77
2023-05-06T12:04:42.878Z,22.76
2023-05-06T12:05:42.635Z,22.77
2023-05-06T12:06:42.887Z,22.73
2023-05-06T12:07:43.004Z,22.73
2023-05-06T12:08:42.630Z,22.73
2023-05-06T12:09:42.631Z,22.80
2023-05-06T12:10:42.568Z,22.85
2023-05-06T12:11:44.383Z,22.91
2023-05-06T12:12:42.596Z,22.95
2023-05-06T12:13:42.664Z,23.03
2023-05-06T12:14:42.550Z,23.04
2023-05-06T12:15:42.575Z,23.08
2023-05-06T12:16:42.571Z,23.17
2023-05-06T12:17:42.513Z,23.11
2023-05-06T12:18:42.555Z,23.07
2023-05-06T12:19:42.499Z,23.08
2023-05-06T12:20:42.467Z,23.15
2023-05-06T12:21:42.469Z,23.15
2023-05-06T12:22:42.505Z,23.18
2023-05-06T12:23:42.559Z,23.14
2023-05-06T12:24:42.462Z,23.07
2023-05-06T12:25:42.465Z,23.14
2023-05-06T12:26:42.574Z,23.15
2023-05-06T12:27:42.416Z,23.23
2023-05-06T12:28:42.391Z,23.29
2023-05-06T12:29:42.382Z,23.42
2023-05-06T12:30:42.392Z,23.52
2023-05-06T12:31:42.394Z,23.64
2023-05-06T12:32:42.400Z,23.55
2023-05-06T12:33:42.988Z,23.34
2023-05-06T12:34:42.392Z,23.14
2023-05-06T12:35:42.324Z,23.13
2023-05-06T12:36:42.369Z,23.06
2023-05-06T12:37:42.381Z,23.04
2023-05-06T12:38:42.348Z,23.13
2023-05-06T12:39:42.379Z,23.23
2023-05-06T12:40:42.273Z,23.29
2023-05-06T12:41:42.285Z,23.34
2023-05-06T12:42:42.449Z,23.46
2023-05-06T12:43:42.328Z,23.55
2023-05-06T12:44:42.251Z,23.67
2023-05-06T12:45:42.323Z,23.78
2023-05-06T12:46:42.267Z,23.88
2023-05-06T12:47:42.316Z,23.97
2023-05-06T12:48:42.295Z,23.98
2023-05-06T12:49:42.263Z,23.96
2023-05-06T12:50:42.173Z,23.81
2023-05-06T12:51:42.333Z,23.69
2023-05-06T12:52:42.201Z,23.64